NCAR-RAP Real-Time Weather Data

Output produced by METARs form (08 May 2021  02:29 UTC)
found at http://weather.rap.ucar.edu/surface/
 
KPSP 080153Z 33011KT 10SM CLR 33/03 A2972 RMK AO2 SLP062 T03280028
KPSP 080053Z 33013KT 10SM CLR 35/02 A2973 RMK AO2 SLP064 T03500017
KPSP 072353Z 35009KT 320V030 10SM CLR 36/04 A2974 RMK AO2 SLP067 T03560044 10361 20294 56025
KPSP 072253Z 33012G19KT 10SM CLR 36/05 A2976 RMK AO2 SLP073 T03610050
KPSP 072153Z 02007KT 10SM CLR 35/05 A2979 RMK AO2 SLP083 T03500050
KPSP 072053Z VRB06KT 10SM CLR 35/06 A2982 RMK AO2 SLP093 T03500056 58026
KPSP 071953Z VRB06KT 10SM CLR 33/06 A2985 RMK AO2 SLP104 T03330056 $
KPSP 071853Z 00000KT 10SM CLR 31/07 A2988 RMK AO2 SLP114 T03110072 $
KPSP 071753Z VRB03KT 10SM CLR 29/08 A2989 RMK AO2 SLP119 T02940083 10294 20194 58004 $
KPSP 071653Z 00000KT 10SM CLR 28/09 A2990 RMK AO2 SLP122 T02780094 $
KPSP 071553Z 00000KT 10SM CLR 26/11 A2991 RMK AO2 SLP124 T02610106
KPSP 071453Z 14003KT 10SM CLR 23/10 A2990 RMK AO2 SLP124 T02280100 53015
KPSP 071353Z 16003KT 10SM CLR 21/10 A2989 RMK AO2 SLP118 T02110100